地図

経路データ

SID SEASON NUMBER BASIN SUBBASIN NAME ISO_TIME NATURE LAT LON WMO_WIND WMO_PRES WMO_AGENCY TRACK_TYPE DIST2LAND LANDFALL IFLAG USA_AGENCY USA_ATCF_ID USA_LAT USA_LON USA_RECORD USA_STATUS USA_WIND USA_PRES USA_SSHS USA_R34_NE USA_R34_SE USA_R34_SW USA_R34_NW USA_R50_NE USA_R50_SE USA_R50_SW USA_R50_NW USA_R64_NE USA_R64_SE USA_R64_SW USA_R64_NW USA_POCI USA_ROCI USA_RMW USA_EYE TOKYO_LAT TOKYO_LON TOKYO_GRADE TOKYO_WIND TOKYO_PRES TOKYO_R50_DIR TOKYO_R50_LONG TOKYO_R50_SHORT TOKYO_R30_DIR TOKYO_R30_LONG TOKYO_R30_SHORT TOKYO_LAND CMA_LAT CMA_LON CMA_CAT CMA_WIND CMA_PRES HKO_LAT HKO_LON HKO_CAT HKO_WIND HKO_PRES NEWDELHI_LAT NEWDELHI_LON NEWDELHI_GRADE NEWDELHI_WIND NEWDELHI_PRES NEWDELHI_CI NEWDELHI_DP NEWDELHI_POCI REUNION_LAT REUNION_LON REUNION_TYPE REUNION_WIND REUNION_PRES REUNION_TNUM REUNION_CI REUNION_RMW REUNION_R34_NE REUNION_R34_SE REUNION_R34_SW REUNION_R34_NW REUNION_R50_NE REUNION_R50_SE REUNION_R50_SW REUNION_R50_NW REUNION_R64_NE REUNION_R64_SE REUNION_R64_SW REUNION_R64_NW BOM_LAT BOM_LON BOM_TYPE BOM_WIND BOM_PRES BOM_TNUM BOM_CI BOM_RMW BOM_R34_NE BOM_R34_SE BOM_R34_SW BOM_R34_NW BOM_R50_NE BOM_R50_SE BOM_R50_SW BOM_R50_NW BOM_R64_NE BOM_R64_SE BOM_R64_SW BOM_R64_NW BOM_ROCI BOM_POCI BOM_EYE BOM_POS_METHOD BOM_PRES_METHOD NADI_LAT NADI_LON NADI_CAT NADI_WIND NADI_PRES WELLINGTON_LAT WELLINGTON_LON WELLINGTON_WIND WELLINGTON_PRES DS824_LAT DS824_LON DS824_STAGE DS824_WIND DS824_PRES TD9636_LAT TD9636_LON TD9636_STAGE TD9636_WIND TD9636_PRES TD9635_LAT TD9635_LON TD9635_WIND TD9635_PRES TD9635_ROCI NEUMANN_LAT NEUMANN_LON NEUMANN_CLASS NEUMANN_WIND NEUMANN_PRES MLC_LAT MLC_LON MLC_CLASS MLC_WIND MLC_PRES USA_GUST BOM_GUST BOM_GUST_PER REUNION_GUST REUNION_GUST_PER USA_SEAHGT USA_SEARAD_NE USA_SEARAD_SE USA_SEARAD_SW USA_SEARAD_NW STORM_SPEED STORM_DIR
1923316N10142 1923 73 WP MM NOT_NAMED 1923-11-11 22:00:00 NR 10.0000 142.100 main 1369 1362 __________O___ -1 10.0000 142.100 3 8 281
1923316N10142 1923 73 WP MM NOT_NAMED 1923-11-12 00:00:00 NR 10.0518 141.837 main 1370 1358 __________P___ -1 10.0518 141.837 3 8 282
1923316N10142 1923 73 WP MM NOT_NAMED 1923-11-12 03:00:00 NR 10.1349 141.440 main 1358 1355 __________P___ -1 10.1349 141.440 3 8 283
1923316N10142 1923 73 WP MM NOT_NAMED 1923-11-12 06:00:00 NR 10.2323 141.041 main 1355 1352 __________P___ -1 10.2323 141.041 3 8 285
1923316N10142 1923 73 WP MM NOT_NAMED 1923-11-12 09:00:00 NR 10.3530 140.636 main 1358 1354 __________P___ -1 10.3530 140.636 3 8 287
1923316N10142 1923 73 WP MM NOT_NAMED 1923-11-12 10:00:00 NR 10.4000 140.500 main 1354 1350 __________O___ -1 10.4000 140.500 4 9 291
1923316N10142 1923 73 WP MM NOT_NAMED 1923-11-12 12:00:00 NR 10.5047 140.226 main 1352 1348 __________P___ -1 10.5047 140.226 4 9 293
1923316N10142 1923 73 WP MM NOT_NAMED 1923-11-12 15:00:00 NR 10.6810 139.814 main 1358 1355 __________P___ -1 10.6810 139.814 4 9 294
1923316N10142 1923 73 WP MM NOT_NAMED 1923-11-12 18:00:00 NR 10.8661 139.410 main 1366 1359 __________P___ -1 10.8661 139.410 4 9 295
1923316N10142 1923 73 WP MM NOT_NAMED 1923-11-12 21:00:00 NR 11.0447 139.023 main 1363 1371 __________P___ -1 11.0447 139.023 4 8 295
1923316N10142 1923 73 WP MM NOT_NAMED 1923-11-12 22:00:00 NR 11.1000 138.900 main 1371 1368 __________O___ -1 11.1000 138.900 4 8 293
1923316N10142 1923 73 WP MM NOT_NAMED 1923-11-13 00:00:00 NR 11.1946 138.669 main 1376 1344 __________P___ -1 11.1946 138.669 4 7 292
1923316N10142 1923 73 WP MM NOT_NAMED 1923-11-13 03:00:00 NR 11.3239 138.341 main 1344 1314 __________P___ -1 11.3239 138.341 4 7 292
1923316N10142 1923 73 WP MM NOT_NAMED 1923-11-13 06:00:00 NR 11.4439 138.025 main 1314 1284 __________P___ -1 11.4439 138.025 4 7 291
1923316N10142 1923 73 WP MM NOT_NAMED 1923-11-13 09:00:00 NR 11.5607 137.708 main 1286 1276 __________P___ -1 11.5607 137.708 4 7 290
1923316N10142 1923 73 WP MM NOT_NAMED 1923-11-13 10:00:00 NR 11.6000 137.600 main 1276 1257 __________O___ -1 11.6000 137.600 4 7 293
1923316N10142 1923 73 WP MM NOT_NAMED 1923-11-13 12:00:00 NR 11.6937 137.380 main 1257 1216 __________P___ -1 11.6937 137.380 4 7 293
1923316N10142 1923 73 WP MM NOT_NAMED 1923-11-13 15:00:00 NR 11.8345 137.045 main 1216 1190 __________P___ -1 11.8345 137.045 4 7 292
1923316N10142 1923 73 WP MM NOT_NAMED 1923-11-13 18:00:00 NR 11.9647 136.696 main 1190 1151 __________P___ -1 11.9647 136.696 4 7 289
1923316N10142 1923 73 WP MM NOT_NAMED 1923-11-13 21:00:00 NR 12.0716 136.328 main 1151 1140 __________P___ -1 12.0716 136.328 4 8 286
1923316N10142 1923 73 WP MM NOT_NAMED 1923-11-13 22:00:00 NR 12.1000 136.200 main 1140 1107 __________O___ -1 12.1000 136.200 4 8 281
1923316N10142 1923 73 WP MM NOT_NAMED 1923-11-14 00:00:00 NR 12.1447 135.936 main 1107 1065 __________P___ -1 12.1447 135.936 4 8 277
1923316N10142 1923 73 WP MM NOT_NAMED 1923-11-14 03:00:00 NR 12.1866 135.522 main 1065 1022 __________P___ -1 12.1866 135.522 4 8 274
1923316N10142 1923 73 WP MM NOT_NAMED 1923-11-14 06:00:00 NR 12.2041 135.091 main 1022 968 __________P___ -1 12.2041 135.091 4 9 271
1923316N10142 1923 73 WP MM NOT_NAMED 1923-11-14 09:00:00 NR 12.2032 134.649 main 968 957 __________P___ -1 12.2032 134.649 4 9 270
1923316N10142 1923 73 WP MM NOT_NAMED 1923-11-14 10:00:00 NR 12.2000 134.500 main 957 925 __________O___ -1 12.2000 134.500 4 9 270
1923316N10142 1923 73 WP MM NOT_NAMED 1923-11-14 12:00:00 NR 12.2026 134.195 main 925 871 __________P___ -1 12.2026 134.195 4 9 270
1923316N10142 1923 73 WP MM NOT_NAMED 1923-11-14 15:00:00 NR 12.1942 133.732 main 871 828 __________P___ -1 12.1942 133.732 4 9 268
1923316N10142 1923 73 WP MM NOT_NAMED 1923-11-14 18:00:00 NR 12.1679 133.274 main 828 772 __________P___ -1 12.1679 133.274 4 9 265
1923316N10142 1923 73 WP MM NOT_NAMED 1923-11-14 21:00:00 NR 12.1209 132.838 main 772 762 __________P___ -1 12.1209 132.838 4 8 263
1923316N10142 1923 73 WP MM NOT_NAMED 1923-11-14 22:00:00 NR 12.1000 132.700 main 762 728 __________O___ -1 12.1000 132.700 4 8 259
1923316N10142 1923 73 WP MM NOT_NAMED 1923-11-15 00:00:00 NR 12.0476 132.446 main 728 696 __________P___ -1 12.0476 132.446 4 7 256
1923316N10142 1923 73 WP MM NOT_NAMED 1923-11-15 03:00:00 NR 11.9501 132.091 main 696 660 __________P___ -1 11.9501 132.091 4 7 253
1923316N10142 1923 73 WP MM NOT_NAMED 1923-11-15 06:00:00 NR 11.8413 131.753 main 660 615 __________P___ -1 11.8413 131.753 4 7 252
1923316N10142 1923 73 WP MM NOT_NAMED 1923-11-15 09:00:00 NR 11.7336 131.415 main 615 605 __________P___ -1 11.7336 131.415 4 7 252
1923316N10142 1923 73 WP MM NOT_NAMED 1923-11-15 10:00:00 NR 11.7000 131.300 main 605 582 __________O___ -1 11.7000 131.300 4 7 256
1923316N10142 1923 73 WP MM NOT_NAMED 1923-11-15 12:00:00 NR 11.6494 131.061 main 582 538 __________P___ -1 11.6494 131.061 4 7 259
1923316N10142 1923 73 WP MM NOT_NAMED 1923-11-15 15:00:00 NR 11.5800 130.696 main 538 494 __________P___ -1 11.5800 130.696 4 7 259
1923316N10142 1923 73 WP MM NOT_NAMED 1923-11-15 18:00:00 NR 11.5101 130.321 main 494 449 __________P___ -1 11.5101 130.321 4 8 259
1923316N10142 1923 73 WP MM NOT_NAMED 1923-11-15 21:00:00 NR 11.4304 129.933 main 449 438 __________P___ -1 11.4304 129.933 4 8 258
1923316N10142 1923 73 WP MM NOT_NAMED 1923-11-15 22:00:00 NR 11.4000 129.800 main 438 405 __________O___ -1 11.4000 129.800 4 8 253
1923316N10142 1923 73 WP MM NOT_NAMED 1923-11-16 00:00:00 NR 11.3070 129.533 main 405 361 __________P___ -1 11.3070 129.533 4 9 250
1923316N10142 1923 73 WP MM NOT_NAMED 1923-11-16 03:00:00 NR 11.1544 129.120 main 361 316 __________P___ -1 11.1544 129.120 4 9 250
1923316N10142 1923 73 WP MM NOT_NAMED 1923-11-16 06:00:00 NR 11.0141 128.693 main 316 273 __________P___ -1 11.0141 128.693 4 9 254
1923316N10142 1923 73 WP MM NOT_NAMED 1923-11-16 09:00:00 NR 10.9172 128.251 main 273 251 __________P___ -1 10.9172 128.251 4 9 259
1923316N10142 1923 73 WP MM NOT_NAMED 1923-11-16 10:00:00 NR 10.9000 128.100 main 251 218 __________O___ -1 10.9000 128.100 4 9 266
1923316N10142 1923 73 WP MM NOT_NAMED 1923-11-16 12:00:00 NR 10.8861 127.774 main 218 164 __________P___ -1 10.8861 127.774 4 10 271
1923316N10142 1923 73 WP MM NOT_NAMED 1923-11-16 15:00:00 NR 10.9153 127.272 main 164 109 __________P___ -1 10.9153 127.272 4 10 277
1923316N10142 1923 73 WP MM NOT_NAMED 1923-11-16 18:00:00 NR 11.0015 126.781 main 109 55 __________P___ -1 11.0015 126.781 4 9 284
1923316N10142 1923 73 WP MM NOT_NAMED 1923-11-16 21:00:00 NR 11.1418 126.334 main 55 49 __________P___ -1 11.1418 126.334 4 9 289
1923316N10142 1923 73 WP MM NOT_NAMED 1923-11-16 22:00:00 NR 11.2000 126.200 main 49 39 __________O___ -1 11.2000 126.200 4 8 297
1923316N10142 1923 73 WP MM NOT_NAMED 1923-11-17 00:00:00 NR 11.3238 125.966 main 39 15 __________P___ -1 11.3238 125.966 4 8 304
1923316N10142 1923 73 WP MM NOT_NAMED 1923-11-17 03:00:00 NR 11.5538 125.665 main 24 0 __________P___ -1 11.5538 125.665 4 7 312
1923316N10142 1923 73 WP MM NOT_NAMED 1923-11-17 06:00:00 NR 11.8204 125.407 main 0 0 __________P___ -1 11.8204 125.407 4 7 319
1923316N10142 1923 73 WP MM NOT_NAMED 1923-11-17 09:00:00 NR 12.1046 125.175 main 0 0 __________P___ -1 12.1046 125.175 4 7 322
1923316N10142 1923 73 WP MM NOT_NAMED 1923-11-17 10:00:00 NR 12.2000 125.100 main 0 0 __________O___ -1 12.2000 125.100 4 7 321
1923316N10142 1923 73 WP MM NOT_NAMED 1923-11-17 12:00:00 NR 12.3933 124.936 main 0 0 __________P___ -1 12.3933 124.936 4 8 322
1923316N10142 1923 73 WP MM NOT_NAMED 1923-11-17 15:00:00 NR 12.6899 124.702 main 24 24 __________P___ -1 12.6899 124.702 4 7 323
1923316N10142 1923 73 WP MM NOT_NAMED 1923-11-17 18:00:00 NR 12.9752 124.481 main 43 24 __________P___ -1 12.9752 124.481 4 7 322
1923316N10142 1923 73 WP MM NOT_NAMED 1923-11-17 21:00:00 NR 13.2272 124.269 main 31 22 __________P___ -1 13.2272 124.269 4 6 320
1923316N10142 1923 73 WP MM NOT_NAMED 1923-11-17 22:00:00 NR 13.3000 124.200 main 22 15 __________O___ -1 13.3000 124.200 4 5 314
1923316N10142 1923 73 WP MM NOT_NAMED 1923-11-18 00:00:00 NR 13.4149 124.069 main 15 15 __________P___ -1 13.4149 124.069 4 5 308
1923316N10142 1923 73 WP MM NOT_NAMED 1923-11-18 03:00:00 NR 13.5493 123.878 main 22 0 __________P___ -1 13.5493 123.878 4 4 303
1923316N10142 1923 73 WP MM NOT_NAMED 1923-11-18 06:00:00 NR 13.6578 123.685 main 0 0 __________P___ -1 13.6578 123.685 4 4 299
1923316N10142 1923 73 WP MM NOT_NAMED 1923-11-18 09:00:00 NR 13.7623 123.475 main 0 0 __________P___ -1 13.7623 123.475 4 5 297
1923316N10142 1923 73 WP MM NOT_NAMED 1923-11-18 10:00:00 NR 13.8000 123.400 main 0 0 __________O___ -1 13.8000 123.400 4 5 299
1923316N10142 1923 73 WP MM NOT_NAMED 1923-11-18 12:00:00 NR 13.8916 123.239 main 10 0 __________P___ -1 13.8916 123.239 4 6 300
1923316N10142 1923 73 WP MM NOT_NAMED 1923-11-18 15:00:00 NR 14.0353 122.979 main 0 0 __________P___ -1 14.0353 122.979 4 6 299
1923316N10142 1923 73 WP MM NOT_NAMED 1923-11-18 18:00:00 NR 14.1866 122.699 main 0 0 __________P___ -1 14.1866 122.699 4 6 299
1923316N10142 1923 73 WP MM NOT_NAMED 1923-11-18 21:00:00 NR 14.3454 122.402 main 11 22 __________P___ -1 14.3454 122.402 4 7 299
1923316N10142 1923 73 WP MM NOT_NAMED 1923-11-18 22:00:00 NR 14.4000 122.300 main 24 24 __________O___ -1 14.4000 122.300 4 7 300
1923316N10142 1923 73 WP MM NOT_NAMED 1923-11-19 00:00:00 NR 14.5162 122.095 main 44 10 __________P___ -1 14.5162 122.095 4 7 300
1923316N10142 1923 73 WP MM NOT_NAMED 1923-11-19 03:00:00 NR 14.6969 121.774 main 10 0 __________P___ -1 14.6969 121.774 4 7 300
1923316N10142 1923 73 WP MM NOT_NAMED 1923-11-19 06:00:00 NR 14.8770 121.444 main 0 0 __________P___ -1 14.8770 121.444 4 7 299
1923316N10142 1923 73 WP MM NOT_NAMED 1923-11-19 09:00:00 NR 15.0471 121.111 main 0 0 __________P___ -1 15.0471 121.111 4 7 297
1923316N10142 1923 73 WP MM NOT_NAMED 1923-11-19 10:00:00 NR 15.1000 121.000 main 0 0 __________O___ -1 15.1000 121.000 4 8 295
1923316N10142 1923 73 WP MM NOT_NAMED 1923-11-19 12:00:00 NR 15.2054 120.757 main 0 0 __________P___ -1 15.2054 120.757 4 8 293
1923316N10142 1923 73 WP MM NOT_NAMED 1923-11-19 15:00:00 NR 15.3510 120.392 main 0 0 __________P___ -1 15.3510 120.392 4 7 292
1923316N10142 1923 73 WP MM NOT_NAMED 1923-11-19 18:00:00 NR 15.4761 120.054 main 0 0 __________P___ -1 15.4761 120.054 4 6 291
1923316N10142 1923 73 WP MM NOT_NAMED 1923-11-19 21:00:00 NR 15.5743 119.775 main 15 15 __________P___ -1 15.5743 119.775 4 5 290
1923316N10142 1923 73 WP MM NOT_NAMED 1923-11-19 22:00:00 NR 15.6000 119.700 main 24 24 __________O___ -1 15.6000 119.700 4 4 288
1923316N10142 1923 73 WP MM NOT_NAMED 1923-11-20 00:00:00 NR 15.6340 119.587 main 34 34 __________P___ -1 15.6340 119.587 4 3 286
1923316N10142 1923 73 WP MM NOT_NAMED 1923-11-20 03:00:00 NR 15.6600 119.482 main 39 39 __________P___ -1 15.6600 119.482 4 2 284
1923316N10142 1923 73 WP MM NOT_NAMED 1923-11-20 06:00:00 NR 15.6723 119.430 main 46 46 __________P___ -1 15.6723 119.430 4 1 292
1923316N10142 1923 73 WP MM NOT_NAMED 1923-11-20 09:00:00 NR 15.6898 119.406 main 46 46 __________P___ -1 15.6898 119.406 4 1 314
1923316N10142 1923 73 WP MM NOT_NAMED 1923-11-20 10:00:00 NR 15.7000 119.400 main 46 46 __________O___ -1 15.7000 119.400 4 1 315
1923316N10142 1923 73 WP MM NOT_NAMED 1923-11-20 12:00:00 NR 15.7386 119.372 main 46 39 __________P___ -1 15.7386 119.372 4 1 331
1923316N10142 1923 73 WP MM NOT_NAMED 1923-11-20 15:00:00 NR 15.8090 119.342 main 48 44 __________P___ -1 15.8090 119.342 4 2 349
1923316N10142 1923 73 WP MM NOT_NAMED 1923-11-20 18:00:00 NR 15.8891 119.322 main 44 42 __________P___ -1 15.8891 119.322 4 2 347
1923316N10142 1923 73 WP MM NOT_NAMED 1923-11-20 21:00:00 NR 15.9725 119.306 main 42 42 __________P___ -1 15.9725 119.306 4 2 352
1923316N10142 1923 73 WP MM NOT_NAMED 1923-11-20 22:00:00 NR 16.0000 119.300 main 42 42 __________O___ -1 16.0000 119.300 4 2 348
1923316N10142 1923 73 WP MM NOT_NAMED 1923-11-21 00:00:00 NR 16.0500 119.286 main 44 44 __________P___ -1 16.0500 119.286 4 2 342
1923316N10142 1923 73 WP MM NOT_NAMED 1923-11-21 03:00:00 NR 16.1250 119.265 main 44 44 __________P___ -1 16.1250 119.265 4 2 348
1923316N10142 1923 73 WP MM NOT_NAMED 1923-11-21 06:00:00 NR 16.2000 119.241 main 57 57 __________P___ -1 16.2000 119.241 4 2 341
1923316N10142 1923 73 WP MM NOT_NAMED 1923-11-21 09:00:00 NR 16.2750 119.212 main 63 63 __________P___ -1 16.2750 119.212 4 2 343
1923316N10142 1923 73 WP MM NOT_NAMED 1923-11-21 10:00:00 NR 16.3000 119.200 main 63 63 __________O___ -1 16.3000 119.200 4 1 307
1923316N10142 1923 73 WP MM NOT_NAMED 1923-11-21 12:00:00 NR 16.3159 119.152 main 63 72 __________P___ -1 16.3159 119.152 4 2 287
1923316N10142 1923 73 WP MM NOT_NAMED 1923-11-21 15:00:00 NR 16.3390 119.072 main 72 72 __________P___ -1 16.3390 119.072 4 2 301
1923316N10142 1923 73 WP MM NOT_NAMED 1923-11-21 18:00:00 NR 16.3973 119.009 main 86 86 __________P___ -1 16.3973 119.009 4 2 337
1923316N10142 1923 73 WP MM NOT_NAMED 1923-11-21 21:00:00 NR 16.5314 118.991 main 88 88 __________P___ -1 16.5314 118.991 4 3 0
1923316N10142 1923 73 WP MM NOT_NAMED 1923-11-21 22:00:00 NR 16.6000 119.000 main 91 91 __________O___ -1 16.6000 119.000 4 6 9
1923316N10142 1923 73 WP MM NOT_NAMED 1923-11-22 00:00:00 NR 16.8133 119.028 main 102 100 __________P___ -1 16.8133 119.028 4 8 10
1923316N10142 1923 73 WP MM NOT_NAMED 1923-11-22 03:00:00 NR 17.2156 119.120 main 125 106 __________P___ -1 17.2156 119.120 4 9 16
1923316N10142 1923 73 WP MM NOT_NAMED 1923-11-22 06:00:00 NR 17.6588 119.277 main 106 95 __________P___ -1 17.6588 119.277 4 9 23
1923316N10142 1923 73 WP MM NOT_NAMED 1923-11-22 09:00:00 NR 18.0773 119.507 main 101 92 __________P___ -1 18.0773 119.507 4 9 30
1923316N10142 1923 73 WP MM NOT_NAMED 1923-11-22 10:00:00 NR 18.2000 119.600 main 95 77 __________O___ -1 18.2000 119.600 4 8 42
1923316N10142 1923 73 WP MM NOT_NAMED 1923-11-22 12:00:00 NR 18.3709 119.787 main 81 53 __________P___ -1 18.3709 119.787 4 8 53
1923316N10142 1923 73 WP MM NOT_NAMED 1923-11-22 15:00:00 NR 18.5766 120.129 main 57 33 __________P___ -1 18.5766 120.129 4 8 62
1923316N10142 1923 73 WP MM NOT_NAMED 1923-11-22 18:00:00 NR 18.7524 120.543 main 38 22 __________P___ -1 18.7524 120.543 4 9 67
1923316N10142 1923 73 WP MM NOT_NAMED 1923-11-22 21:00:00 NR 18.9328 121.025 main 35 39 __________P___ -1 18.9328 121.025 4 10 68
1923316N10142 1923 73 WP MM NOT_NAMED 1923-11-22 22:00:00 NR 19.0000 121.200 main 54 54 __________O___ -1 19.0000 121.200 4 11 65
1923316N10142 1923 73 WP MM NOT_NAMED 1923-11-23 00:00:00 NR 19.1664 121.565 main 81 81 __________P___ -1 19.1664 121.565 4 12 65
1923316N10142 1923 73 WP MM NOT_NAMED 1923-11-23 03:00:00 NR 19.4348 122.170 main 111 123 __________P___ -1 19.4348 122.170 4 13 65
1923316N10142 1923 73 WP MM NOT_NAMED 1923-11-23 06:00:00 NR 19.7173 122.818 main 154 158 __________P___ -1 19.7173 122.818 4 14 65
1923316N10142 1923 73 WP MM NOT_NAMED 1923-11-23 09:00:00 NR 20.0047 123.481 main 218 218 __________P___ -1 20.0047 123.481 4 14 65
1923316N10142 1923 73 WP MM NOT_NAMED 1923-11-23 10:00:00 NR 20.1000 123.700 main 240 240 __________O___ -1 20.1000 123.700 4 13 67
1923316N10142 1923 73 WP MM NOT_NAMED 1923-11-23 12:00:00 NR 20.2592 124.115 main 284 284 __________P___ -1 20.2592 124.115 4 13 68
1923316N10142 1923 73 WP MM NOT_NAMED 1923-11-23 15:00:00 NR 20.4978 124.738 main 344 351 __________P___ -1 20.4978 124.738 4 13 67
1923316N10142 1923 73 WP MM NOT_NAMED 1923-11-23 18:00:00 NR 20.7613 125.361 main 421 421 __________P___ -1 20.7613 125.361 4 13 64
1923316N10142 1923 73 WP MM NOT_NAMED 1923-11-23 21:00:00 NR 21.0778 125.989 main 491 491 __________P___ -1 21.0778 125.989 4 13 61
1923316N10142 1923 73 WP MM NOT_NAMED 1923-11-23 22:00:00 NR 21.2000 126.200 main 514 514 __________O___ -1 21.2000 126.200 4 14 58
1923316N10142 1923 73 WP MM NOT_NAMED 1923-11-24 00:00:00 NR 21.4635 126.641 main 563 573 __________P___ -1 21.4635 126.641 4 15 55
1923316N10142 1923 73 WP MM NOT_NAMED 1923-11-24 03:00:00 NR 21.9154 127.309 main 620 620 __________P___ -1 21.9154 127.309 4 16 52
1923316N10142 1923 73 WP MM NOT_NAMED 1923-11-24 06:00:00 NR 22.4293 127.968 main 664 660 __________P___ -1 22.4293 127.968 4 16 48
1923316N10142 1923 73 WP MM NOT_NAMED 1923-11-24 09:00:00 NR 22.9988 128.599 main 701 701 __________P___ -1 22.9988 128.599 4 16 45
1923316N10142 1923 73 WP MM NOT_NAMED 1923-11-24 10:00:00 NR 23.2000 128.800 main 716 716 __________O___ -1 23.2000 128.800 4 16 41
1923316N10142 1923 73 WP MM NOT_NAMED 1923-11-24 12:00:00 NR 23.6178 129.184 main 745 743 __________P___ -1 23.6178 129.184 4 17 38
1923316N10142 1923 73 WP MM NOT_NAMED 1923-11-24 15:00:00 NR 24.2766 129.725 main 754 671 __________P___ -1 24.2766 129.725 4 17 35
1923316N10142 1923 73 WP MM NOT_NAMED 1923-11-24 18:00:00 NR 24.9631 130.237 main 671 591 __________P___ -1 24.9631 130.237 4 17 33
1923316N10142 1923 73 WP MM NOT_NAMED 1923-11-24 21:00:00 NR 25.6649 130.735 main 591 569 __________P___ -1 25.6649 130.735 4 17 33
1923316N10142 1923 73 WP MM NOT_NAMED 1923-11-24 22:00:00 NR 25.9000 130.900 main 569 __________O___ -1 25.9000 130.900 7 17 32

デジタル台風データ・検索

IBTrACS Databaseについて

本データベースは、米国NOAAが公開する1842年以降の世界の熱帯低気圧のベストトラックデータアーカイブInternational Best Track Archive for Climate Stewardship (IBTrACS)を、ウェブで閲覧しやすい形式に変換したものです。

最終更新日:2021-10-08